createdAt,value
2023-05-20T00:02:14.667Z,8.77
2023-05-20T00:04:43.965Z,8.13
2023-05-20T00:07:12.391Z,8.60
2023-05-20T00:09:40.848Z,6.80
2023-05-20T00:12:09.503Z,7.67
2023-05-20T00:14:38.042Z,8.67
2023-05-20T00:17:07.976Z,10.03
2023-05-20T00:19:36.394Z,7.43
2023-05-20T00:22:04.887Z,9.57
2023-05-20T00:24:33.246Z,7.17
2023-05-20T00:27:02.737Z,10.43
2023-05-20T00:29:31.181Z,7.67
2023-05-20T00:32:00.516Z,9.03
2023-05-20T00:34:30.270Z,7.77
2023-05-20T00:36:59.925Z,8.60
2023-05-20T00:39:29.703Z,7.60
2023-05-20T00:42:00.473Z,9.73
2023-05-20T00:44:28.905Z,7.57
2023-05-20T00:46:58.102Z,8.43
2023-05-20T00:49:26.631Z,9.37
2023-05-20T00:51:56.629Z,9.13
2023-05-20T00:54:25.070Z,10.10
2023-05-20T00:56:53.920Z,7.77
2023-05-20T00:59:22.355Z,6.70
2023-05-20T01:01:50.944Z,7.73
2023-05-20T01:04:19.516Z,10.97
2023-05-20T01:06:48.049Z,6.33
2023-05-20T01:09:17.835Z,8.70
2023-05-20T01:11:53.007Z,10.03
2023-05-20T01:14:24.553Z,7.97
2023-05-20T01:16:54.933Z,7.07
2023-05-20T01:19:30.162Z,6.70
2023-05-20T01:22:01.346Z,11.23
2023-05-20T01:24:31.143Z,7.40
2023-05-20T01:27:00.877Z,9.70
2023-05-20T01:29:29.294Z,6.73
2023-05-20T01:32:01.133Z,7.43
2023-05-20T01:34:29.814Z,8.87
2023-05-20T01:37:00.956Z,8.13
2023-05-20T01:39:31.940Z,9.23
2023-05-20T01:42:02.830Z,8.47
2023-05-20T01:44:31.662Z,6.40
2023-05-20T01:47:01.730Z,6.80
2023-05-20T01:49:30.441Z,8.63
2023-05-20T01:52:02.411Z,9.00
2023-05-20T01:54:32.376Z,9.87
2023-05-20T01:57:01.474Z,8.43
2023-05-20T01:59:30.003Z,8.67
2023-05-20T02:02:01.799Z,7.00
2023-05-20T02:04:30.478Z,6.37
2023-05-20T02:07:00.207Z,9.83
2023-05-20T02:09:29.254Z,9.20
2023-05-20T02:11:59.871Z,7.77
2023-05-20T02:14:28.276Z,7.03
2023-05-20T02:17:04.519Z,9.03
2023-05-20T02:19:32.949Z,6.87
2023-05-20T02:22:01.592Z,6.80
2023-05-20T02:24:30.016Z,6.97
2023-05-20T02:27:01.792Z,7.37
2023-05-20T02:29:30.325Z,8.07
2023-05-20T02:32:01.102Z,6.93
2023-05-20T02:34:30.441Z,6.40
2023-05-20T02:37:00.062Z,7.60
2023-05-20T02:39:29.521Z,9.43
2023-05-20T02:42:00.439Z,9.30
2023-05-20T02:44:28.795Z,10.00
2023-05-20T02:46:57.360Z,9.00
2023-05-20T02:49:25.749Z,10.63
2023-05-20T02:51:54.143Z,6.03
2023-05-20T02:54:22.751Z,8.00
2023-05-20T02:56:51.137Z,8.33
2023-05-20T02:59:20.874Z,6.37
2023-05-20T03:01:49.505Z,7.23
2023-05-20T03:04:19.277Z,7.43
2023-05-20T03:06:47.829Z,8.07
2023-05-20T03:09:16.469Z,7.37
2023-05-20T03:11:44.869Z,6.13
2023-05-20T03:14:21.483Z,7.30
2023-05-20T03:16:49.867Z,7.17
2023-05-20T03:19:18.240Z,8.67
2023-05-20T03:21:46.664Z,6.50
2023-05-20T03:24:15.060Z,7.10
2023-05-20T03:26:43.936Z,9.13
2023-05-20T03:29:13.805Z,6.97
2023-05-20T03:31:43.652Z,6.77
2023-05-20T03:34:12.109Z,6.70
2023-05-20T03:36:40.603Z,6.53
2023-05-20T03:39:08.998Z,7.40
2023-05-20T03:41:38.020Z,7.63
2023-05-20T03:44:06.712Z,8.43
2023-05-20T03:46:35.145Z,6.83
2023-05-20T03:49:05.872Z,6.20
2023-05-20T03:51:34.351Z,6.40
2023-05-20T03:54:03.220Z,9.97
2023-05-20T03:56:31.630Z,9.17
2023-05-20T03:59:01.975Z,6.23
2023-05-20T04:01:30.473Z,6.73
2023-05-20T04:03:58.865Z,8.07
2023-05-20T04:06:28.666Z,9.77
2023-05-20T04:08:57.175Z,6.50
2023-05-20T04:11:25.947Z,8.23
2023-05-20T04:13:54.785Z,6.67
2023-05-20T04:16:23.184Z,9.83
2023-05-20T04:18:52.644Z,9.37
2023-05-20T04:21:21.086Z,6.70
2023-05-20T04:23:50.817Z,6.70
2023-05-20T04:26:19.233Z,7.70
2023-05-20T04:28:49.726Z,6.50
2023-05-20T04:31:18.643Z,6.53
2023-05-20T04:33:47.188Z,6.43
2023-05-20T04:36:16.841Z,8.73
2023-05-20T04:38:45.509Z,9.77
2023-05-20T04:41:16.011Z,5.87
2023-05-20T04:43:45.849Z,6.97
2023-05-20T04:46:14.299Z,9.73
2023-05-20T04:48:43.877Z,6.40
2023-05-20T04:51:12.423Z,6.93
2023-05-20T04:53:40.850Z,5.57
2023-05-20T04:56:09.317Z,7.10
2023-05-20T04:58:39.666Z,6.43
2023-05-20T05:01:08.169Z,6.80
2023-05-20T05:03:36.978Z,9.67
2023-05-20T05:06:05.466Z,10.13
2023-05-20T05:08:33.872Z,6.37
2023-05-20T05:11:06.232Z,7.03
2023-05-20T05:13:34.702Z,7.67
2023-05-20T05:16:05.597Z,6.40
2023-05-20T05:18:34.042Z,9.17
2023-05-20T05:21:04.636Z,7.23
2023-05-20T05:23:33.192Z,6.33
2023-05-20T05:26:04.874Z,6.63
2023-05-20T05:28:33.369Z,12.87
2023-05-20T05:31:03.669Z,13.80
2023-05-20T05:33:33.488Z,19.60
2023-05-20T05:36:04.268Z,14.57
2023-05-20T05:38:32.673Z,16.97
2023-05-20T05:41:01.882Z,18.47
2023-05-20T05:43:30.348Z,16.50
2023-05-20T05:45:58.739Z,17.77
2023-05-20T05:48:27.352Z,17.67
2023-05-20T05:50:57.154Z,17.97
2023-05-20T05:53:25.742Z,15.90
2023-05-20T05:55:54.180Z,17.73
2023-05-20T05:58:22.825Z,16.40
2023-05-20T06:00:53.002Z,13.13
2023-05-20T06:03:21.547Z,13.80
2023-05-20T06:05:50.136Z,17.20
2023-05-20T06:08:19.912Z,13.70
2023-05-20T06:10:50.034Z,13.47
2023-05-20T06:13:19.182Z,14.57
2023-05-20T06:15:51.235Z,12.70
2023-05-20T06:18:19.830Z,19.77
2023-05-20T06:20:48.262Z,15.67
2023-05-20T06:23:16.688Z,16.13
2023-05-20T06:25:46.459Z,14.33
2023-05-20T06:28:14.844Z,14.47
2023-05-20T06:30:43.600Z,11.27
2023-05-20T06:33:12.029Z,17.43
2023-05-20T06:35:40.648Z,20.43
2023-05-20T06:38:09.150Z,15.83
2023-05-20T06:40:37.770Z,15.97
2023-05-20T06:43:07.540Z,16.17
2023-05-20T06:45:36.150Z,15.20
2023-05-20T06:48:04.960Z,13.03
2023-05-20T06:50:33.339Z,13.43
2023-05-20T06:53:03.388Z,13.83
2023-05-20T06:55:32.034Z,11.90
2023-05-20T06:58:00.552Z,16.03
2023-05-20T07:00:31.210Z,13.60
2023-05-20T07:02:59.676Z,16.77
2023-05-20T07:05:28.988Z,12.00
2023-05-20T07:07:57.483Z,13.97
2023-05-20T07:10:26.285Z,14.07
2023-05-20T07:12:54.731Z,13.60
2023-05-20T07:15:23.131Z,14.00
2023-05-20T07:17:53.258Z,14.03
2023-05-20T07:20:21.904Z,15.20
2023-05-20T07:23:00.979Z,11.37
2023-05-20T07:25:29.377Z,16.20
2023-05-20T07:27:58.062Z,16.37
2023-05-20T07:30:26.694Z,18.57
2023-05-20T07:32:56.840Z,14.70
2023-05-20T07:35:25.654Z,16.87
2023-05-20T07:37:54.185Z,17.80
2023-05-20T07:40:23.126Z,14.73
2023-05-20T07:42:51.531Z,14.30
2023-05-20T07:45:20.033Z,16.20
2023-05-20T07:47:48.485Z,14.43
2023-05-20T07:50:18.310Z,14.80
2023-05-20T07:52:55.924Z,17.87
2023-05-20T07:55:25.354Z,14.37
2023-05-20T07:57:53.838Z,17.03
2023-05-20T08:00:22.371Z,18.97
2023-05-20T08:02:50.887Z,20.93
2023-05-20T08:05:22.750Z,18.80
2023-05-20T08:07:51.239Z,23.00
2023-05-20T08:10:19.943Z,22.10
2023-05-20T08:12:51.776Z,27.60
2023-05-20T08:15:20.335Z,20.33
2023-05-20T08:17:48.715Z,20.67
2023-05-20T08:20:17.166Z,22.03
2023-05-20T08:22:47.438Z,22.97
2023-05-20T08:25:16.182Z,21.80
2023-05-20T08:27:44.818Z,22.40
2023-05-20T08:30:13.683Z,19.97
2023-05-20T08:32:42.119Z,17.40
2023-05-20T08:35:11.331Z,15.83
2023-05-20T08:37:39.701Z,21.97
2023-05-20T08:40:11.858Z,17.90
2023-05-20T08:42:44.359Z,20.47
2023-05-20T08:45:13.979Z,20.73
2023-05-20T08:47:43.990Z,39.93
2023-05-20T08:50:14.282Z,23.67
2023-05-20T08:52:45.373Z,19.77
2023-05-20T08:55:22.823Z,15.13
2023-05-20T08:57:51.634Z,15.50
2023-05-20T09:00:20.894Z,18.13
2023-05-20T09:02:49.490Z,16.27
2023-05-20T09:05:18.331Z,16.93
2023-05-20T09:07:46.925Z,16.13
2023-05-20T09:10:16.928Z,21.37
2023-05-20T09:12:46.930Z,25.90
2023-05-20T09:15:15.388Z,20.87
2023-05-20T09:17:43.844Z,22.10
2023-05-20T09:20:13.077Z,14.67
2023-05-20T09:22:41.635Z,20.73
2023-05-20T09:25:12.414Z,10.10
2023-05-20T09:27:42.612Z,8.43
2023-05-20T09:30:12.976Z,10.70
2023-05-20T09:32:41.803Z,9.67
2023-05-20T09:35:14.056Z,9.43
2023-05-20T09:37:44.248Z,14.20
2023-05-20T09:40:15.401Z,8.80
2023-05-20T09:42:54.028Z,14.50
2023-05-20T09:45:25.257Z,8.80
2023-05-20T09:47:56.462Z,12.23
2023-05-20T09:50:26.019Z,10.33
2023-05-20T09:52:55.717Z,7.87
2023-05-20T09:55:26.170Z,8.17
2023-05-20T09:57:57.325Z,10.20
2023-05-20T10:00:26.033Z,10.27
2023-05-20T10:02:55.053Z,7.83
2023-05-20T10:05:28.622Z,8.23
2023-05-20T10:08:33.164Z,9.90
2023-05-20T10:11:11.887Z,6.87
2023-05-20T10:13:53.575Z,7.80
2023-05-20T10:16:35.500Z,6.73
2023-05-20T10:19:21.526Z,5.90
2023-05-20T10:21:58.521Z,8.07
2023-05-20T10:24:38.062Z,5.73
2023-05-20T10:27:12.858Z,5.27
2023-05-20T10:32:28.619Z,3.90
2023-05-20T10:35:02.080Z,4.20
2023-05-20T10:37:33.111Z,5.13
2023-05-20T10:40:07.981Z,3.90
2023-05-20T10:42:36.410Z,5.30
2023-05-20T10:45:08.115Z,4.10
2023-05-20T10:47:36.869Z,3.67
2023-05-20T10:50:07.868Z,3.57
2023-05-20T10:52:38.368Z,3.77
2023-05-20T10:55:08.515Z,3.70
2023-05-20T10:57:37.713Z,5.73
2023-05-20T11:00:11.790Z,4.40
2023-05-20T11:02:42.082Z,4.10
2023-05-20T11:05:12.546Z,5.13
2023-05-20T11:07:41.273Z,6.23
2023-05-20T11:10:11.046Z,7.27
2023-05-20T11:12:40.717Z,20.30
2023-05-20T11:15:13.065Z,5.27
2023-05-20T11:17:53.670Z,4.20
2023-05-20T11:20:22.378Z,3.83
2023-05-20T11:22:51.394Z,4.10
2023-05-20T11:25:20.713Z,8.40
2023-05-20T11:27:59.378Z,11.07
2023-05-20T11:30:29.293Z,3.83
2023-05-20T11:32:59.482Z,3.40
2023-05-20T11:35:30.590Z,2.40
2023-05-20T11:38:02.667Z,5.50
2023-05-20T11:40:46.399Z,2.90
2023-05-20T11:43:19.290Z,4.83
2023-05-20T11:45:55.808Z,3.17
2023-05-20T11:48:25.268Z,2.70
2023-05-20T11:50:55.443Z,3.40
2023-05-20T11:53:25.410Z,4.67
2023-05-20T11:55:56.499Z,8.73
2023-05-20T11:58:26.315Z,5.47
2023-05-20T12:01:05.175Z,5.17
2023-05-20T12:03:42.352Z,4.50
2023-05-20T12:06:13.265Z,3.77
2023-05-20T12:08:41.655Z,4.07
2023-05-20T12:11:10.143Z,4.57
2023-05-20T12:13:38.988Z,5.53
2023-05-20T12:16:09.960Z,7.83
2023-05-20T12:18:38.790Z,5.28
2023-05-20T12:21:08.338Z,6.53
2023-05-20T12:23:36.741Z,4.40
2023-05-20T12:26:07.072Z,4.18
2023-05-20T12:28:35.480Z,3.97
2023-05-20T12:31:04.664Z,3.53
2023-05-20T12:33:34.471Z,5.22
2023-05-20T12:36:02.992Z,7.20
2023-05-20T12:38:31.467Z,5.20
2023-05-20T12:40:59.872Z,3.50
2023-05-20T12:43:28.246Z,4.65
2023-05-20T12:45:57.051Z,4.82
2023-05-20T12:48:25.486Z,8.05
2023-05-20T12:50:55.194Z,6.38
2023-05-20T12:53:23.646Z,4.60
2023-05-20T12:55:52.040Z,5.25
2023-05-20T12:58:20.729Z,4.68
2023-05-20T13:00:49.256Z,4.18
2023-05-20T13:03:18.071Z,8.35
2023-05-20T13:05:46.716Z,3.42
2023-05-20T13:08:16.446Z,5.10
2023-05-20T13:10:44.806Z,10.40
2023-05-20T13:13:13.920Z,7.60
2023-05-20T13:15:42.359Z,4.80
2023-05-20T13:18:11.142Z,5.05
2023-05-20T13:20:39.571Z,3.90
2023-05-20T13:23:10.764Z,5.65
2023-05-20T13:25:40.996Z,4.22
2023-05-20T13:28:10.331Z,6.55
2023-05-20T13:30:39.124Z,3.67
2023-05-20T13:33:09.920Z,5.18
2023-05-20T13:35:38.420Z,6.68
2023-05-20T13:38:10.185Z,5.05
2023-05-20T13:40:39.917Z,4.47
2023-05-20T13:43:09.699Z,4.78
2023-05-20T13:45:38.093Z,5.22
2023-05-20T13:48:09.481Z,5.57
2023-05-20T13:50:37.864Z,5.47
2023-05-20T13:53:07.472Z,3.60
2023-05-20T13:55:36.511Z,3.47
2023-05-20T13:58:11.904Z,8.75
2023-05-20T14:00:40.632Z,6.82
2023-05-20T14:03:10.555Z,9.55
2023-05-20T14:05:39.091Z,4.32
2023-05-20T14:08:09.837Z,4.90
2023-05-20T14:10:38.219Z,4.15
2023-05-20T14:13:08.963Z,4.05
2023-05-20T14:15:38.955Z,8.05
2023-05-20T14:18:09.813Z,5.20
2023-05-20T14:20:38.284Z,5.80
2023-05-20T14:23:06.674Z,3.70
2023-05-20T14:25:35.219Z,3.67
2023-05-20T14:28:03.925Z,3.63
2023-05-20T14:30:32.408Z,5.18
2023-05-20T14:33:02.271Z,6.10
2023-05-20T14:35:30.799Z,3.53
2023-05-20T14:37:59.235Z,5.55
2023-05-20T14:40:27.877Z,4.18
2023-05-20T14:42:56.320Z,4.82
2023-05-20T14:45:24.785Z,3.30
2023-05-20T14:47:59.445Z,5.35
2023-05-20T14:50:29.264Z,3.97
2023-05-20T14:52:57.663Z,5.28
2023-05-20T14:55:26.065Z,5.30
2023-05-20T14:57:54.465Z,5.68
2023-05-20T15:00:23.108Z,3.60
2023-05-20T15:02:51.610Z,5.80
2023-05-20T15:05:20.125Z,4.00
2023-05-20T15:07:49.941Z,3.40
2023-05-20T15:10:18.397Z,4.82
2023-05-20T15:12:46.829Z,4.28
2023-05-20T15:15:15.587Z,4.82
2023-05-20T15:17:44.035Z,4.78
2023-05-20T15:20:13.302Z,3.35
2023-05-20T15:22:43.968Z,5.80
2023-05-20T15:25:13.793Z,3.42
2023-05-20T15:27:42.448Z,3.55
2023-05-20T15:30:11.620Z,3.53
2023-05-20T15:32:41.311Z,3.85
2023-05-20T15:35:11.076Z,3.50
2023-05-20T15:37:39.457Z,3.35
2023-05-20T15:40:10.462Z,5.05
2023-05-20T15:42:40.961Z,4.15
2023-05-20T15:45:10.941Z,6.35
2023-05-20T15:47:40.840Z,3.83
2023-05-20T15:50:12.267Z,4.53
2023-05-20T15:52:40.887Z,4.00
2023-05-20T15:55:11.739Z,3.97
2023-05-20T15:57:41.505Z,3.78
2023-05-20T16:00:11.769Z,3.47
2023-05-20T16:02:41.398Z,3.90
2023-05-20T16:05:11.436Z,4.78
2023-05-20T16:07:42.541Z,6.20
2023-05-20T16:10:11.771Z,3.72
2023-05-20T16:12:41.597Z,4.70
2023-05-20T16:15:11.559Z,3.78
2023-05-20T16:17:40.517Z,3.90
2023-05-20T16:20:11.028Z,4.95
2023-05-20T16:22:39.421Z,4.85
2023-05-20T16:25:09.364Z,4.65
2023-05-20T16:27:38.248Z,6.18
2023-05-20T16:30:12.159Z,3.25
2023-05-20T16:32:41.079Z,3.65
2023-05-20T16:35:11.638Z,4.70
2023-05-20T16:37:40.529Z,9.27
2023-05-20T16:40:11.245Z,7.65
2023-05-20T16:42:40.610Z,8.60
2023-05-20T16:45:13.493Z,4.20
2023-05-20T16:47:41.965Z,4.00
2023-05-20T16:50:11.610Z,6.60
2023-05-20T16:52:40.015Z,4.82
2023-05-20T16:55:10.511Z,5.25
2023-05-20T16:57:39.229Z,3.70
2023-05-20T17:00:10.303Z,4.43
2023-05-20T17:02:40.036Z,3.60
2023-05-20T17:05:09.767Z,3.72
2023-05-20T17:07:39.394Z,3.60
2023-05-20T17:10:08.848Z,4.38
2023-05-20T17:12:44.513Z,4.03
2023-05-20T17:15:12.894Z,4.57
2023-05-20T17:17:42.697Z,6.22
2023-05-20T17:20:12.635Z,3.63
2023-05-20T17:22:41.117Z,5.53
2023-05-20T17:25:10.819Z,5.60
2023-05-20T17:27:43.504Z,5.65
2023-05-20T17:30:12.857Z,5.70
2023-05-20T17:32:42.709Z,3.40
2023-05-20T17:35:12.712Z,3.80
2023-05-20T17:37:41.395Z,3.60
2023-05-20T17:40:12.366Z,5.27
2023-05-20T17:42:40.842Z,7.10
2023-05-20T17:45:12.609Z,12.07
2023-05-20T17:47:42.479Z,5.10
2023-05-20T17:50:14.631Z,9.70
2023-05-20T17:52:44.927Z,5.00
2023-05-20T17:55:14.550Z,4.50
2023-05-20T17:57:43.004Z,5.50
2023-05-20T18:00:13.474Z,4.50
2023-05-20T18:02:47.227Z,4.33
2023-05-20T18:05:16.902Z,4.63
2023-05-20T18:07:45.580Z,6.93
2023-05-20T18:10:14.297Z,6.50
2023-05-20T18:12:43.023Z,9.87
2023-05-20T18:15:13.937Z,6.57
2023-05-20T18:17:44.824Z,4.60
2023-05-20T18:20:14.464Z,7.23
2023-05-20T18:22:45.334Z,7.90
2023-05-20T18:25:21.007Z,6.47
2023-05-20T18:27:49.424Z,11.97
2023-05-20T18:30:17.941Z,8.20
2023-05-20T18:32:47.661Z,7.47
2023-05-20T18:35:16.636Z,11.00
2023-05-20T18:37:45.026Z,9.30
2023-05-20T18:40:16.542Z,6.80
2023-05-20T18:42:45.109Z,5.77
2023-05-20T18:45:13.755Z,6.37
2023-05-20T18:47:42.304Z,5.40
2023-05-20T18:50:15.403Z,8.63
2023-05-20T18:52:53.828Z,12.90
2023-05-20T18:55:22.210Z,8.73
2023-05-20T18:57:50.818Z,16.00
2023-05-20T19:00:19.590Z,9.00
2023-05-20T19:02:48.031Z,5.47
2023-05-20T19:05:18.003Z,4.27
2023-05-20T19:07:46.786Z,4.93
2023-05-20T19:10:15.575Z,4.20
2023-05-20T19:12:44.628Z,4.60
2023-05-20T19:15:13.707Z,5.07
2023-05-20T19:17:42.304Z,7.20
2023-05-20T19:20:12.064Z,8.07
2023-05-20T19:22:42.063Z,5.50
2023-05-20T19:25:13.365Z,4.17
2023-05-20T19:27:42.033Z,4.20
2023-05-20T19:30:12.325Z,7.50
2023-05-20T19:32:41.015Z,7.57
2023-05-20T19:35:10.202Z,5.27
2023-05-20T19:37:38.608Z,5.70
2023-05-20T19:40:09.912Z,7.57
2023-05-20T19:42:38.340Z,4.13
2023-05-20T19:45:07.889Z,4.30
2023-05-20T19:47:37.512Z,7.03
2023-05-20T19:50:06.815Z,4.07
2023-05-20T19:52:35.387Z,5.17
2023-05-20T19:55:03.893Z,10.03
2023-05-20T19:57:33.663Z,30.40
2023-05-20T20:00:15.504Z,5.53
2023-05-20T20:02:43.951Z,5.90
2023-05-20T20:05:13.885Z,4.73
2023-05-20T20:07:42.448Z,5.70
2023-05-20T20:10:12.800Z,5.53
2023-05-20T20:12:42.662Z,3.93
2023-05-20T20:15:14.560Z,6.37
2023-05-20T20:17:45.446Z,5.23
2023-05-20T20:20:15.381Z,4.90
2023-05-20T20:22:43.824Z,4.50
2023-05-20T20:25:14.025Z,6.13
2023-05-20T20:27:44.893Z,5.73
2023-05-20T20:30:15.060Z,7.20
2023-05-20T20:32:43.591Z,32.50
2023-05-20T20:35:12.972Z,14.77
2023-05-20T20:37:41.433Z,10.40
2023-05-20T20:40:13.734Z,7.47
2023-05-20T20:42:54.695Z,9.40
2023-05-20T20:45:23.702Z,10.70
2023-05-20T20:47:54.797Z,8.07
2023-05-20T20:50:23.341Z,10.10
2023-05-20T20:52:51.755Z,12.53
2023-05-20T20:55:20.249Z,10.27
2023-05-20T20:58:02.677Z,15.17
2023-05-20T21:00:31.341Z,9.67
2023-05-20T21:02:59.973Z,8.97
2023-05-20T21:05:29.227Z,14.33
2023-05-20T21:07:59.369Z,33.00
2023-05-20T21:10:29.519Z,13.13
2023-05-20T21:13:00.384Z,11.13
2023-05-20T21:15:28.816Z,6.40
2023-05-20T21:17:57.196Z,8.03
2023-05-20T21:20:25.674Z,13.70
2023-05-20T21:22:54.093Z,7.77
2023-05-20T21:25:22.500Z,7.37
2023-05-20T21:27:50.876Z,8.77
2023-05-20T21:30:24.128Z,8.27
2023-05-20T21:32:52.651Z,9.30
2023-05-20T21:35:21.099Z,7.93
2023-05-20T21:37:49.950Z,10.87
2023-05-20T21:40:18.483Z,10.17
2023-05-20T21:42:48.850Z,11.63
2023-05-20T21:45:17.714Z,11.83
2023-05-20T21:47:47.501Z,7.53
2023-05-20T21:50:15.977Z,9.90
2023-05-20T21:52:44.489Z,10.27
2023-05-20T21:55:16.009Z,11.50
2023-05-20T21:57:44.407Z,10.73
2023-05-20T22:00:15.612Z,10.30
2023-05-20T22:02:44.351Z,11.63
2023-05-20T22:05:15.897Z,11.07
2023-05-20T22:07:45.525Z,10.13
2023-05-20T22:10:17.872Z,13.67
2023-05-20T22:12:47.533Z,7.33
2023-05-20T22:15:16.092Z,11.50
2023-05-20T22:17:44.764Z,7.10
2023-05-20T22:20:16.003Z,8.53
2023-05-20T22:22:45.367Z,6.90
2023-05-20T22:25:14.314Z,5.70
2023-05-20T22:27:43.485Z,8.00
2023-05-20T22:30:12.761Z,16.50
2023-05-20T22:32:42.356Z,6.93
2023-05-20T22:35:14.258Z,7.40
2023-05-20T22:37:44.411Z,6.43
2023-05-20T22:40:14.387Z,7.37
2023-05-20T22:42:42.805Z,6.33
2023-05-20T22:45:11.873Z,7.00
2023-05-20T22:47:40.517Z,7.63
2023-05-20T22:50:09.841Z,14.37
2023-05-20T22:52:49.567Z,9.97
2023-05-20T22:55:18.055Z,12.70
2023-05-20T22:57:46.536Z,13.60
2023-05-20T23:00:20.795Z,7.60
2023-05-20T23:02:52.441Z,11.00
2023-05-20T23:05:21.125Z,6.90
2023-05-20T23:07:52.974Z,6.27
2023-05-20T23:10:21.866Z,8.03
2023-05-20T23:12:50.254Z,10.07
2023-05-20T23:15:19.197Z,10.20
2023-05-20T23:17:49.436Z,7.80
2023-05-20T23:20:22.406Z,7.23
2023-05-20T23:22:52.406Z,7.43
2023-05-20T23:25:20.785Z,7.20
2023-05-20T23:27:49.317Z,5.80
2023-05-20T23:30:18.132Z,6.53
2023-05-20T23:32:47.387Z,6.57
2023-05-20T23:35:18.977Z,6.77
2023-05-20T23:37:48.356Z,7.63
2023-05-20T23:40:18.653Z,6.33
2023-05-20T23:42:47.113Z,8.30
2023-05-20T23:45:16.894Z,5.83
2023-05-20T23:47:45.824Z,6.90
2023-05-20T23:50:15.415Z,7.63
2023-05-20T23:52:53.853Z,7.30
2023-05-20T23:55:23.644Z,7.77
2023-05-20T23:57:52.000Z,6.43
